Time;durP1;ratioP1;P1;durP2;ratioP2;P2;SDS_P1;SDS_P2;PMS_P1;PMS_P2;Temp;Humidity;BMP_temperature;BMP_pressure;BME280_temperature;BME280_humidity;BME280_pressure;Samples;Min_cycle;Max_cycle;Signal;HPM_P1;HPM_P2
2022/06/12 00:00:52;;;;;;;;;;;;;;;17.14;100.00;99537.69;5050951;28;19932;-51
2022/06/12 00:03:19;;;;;;;;;;;;;;;17.11;100.00;99527.41;5050893;28;20078;-53
2022/06/12 00:05:46;;;;;;;;;;;;;;;17.10;100.00;99528.63;5051262;28;19978;-51
2022/06/12 00:08:12;;;;;;;;;;;;;;;17.02;100.00;99540.88;5050945;28;19939;-53
2022/06/12 00:10:39;;;;;;;;;;;;;;;17.00;100.00;99524.69;5050760;28;19951;-52
2022/06/12 00:13:06;;;;;;;;;;;;;;;16.95;100.00;99519.53;5050902;28;19925;-50
2022/06/12 00:15:33;;;;;;;;;;;;;;;17.00;100.00;99524.69;5050707;28;19925;-53
2022/06/12 00:17:59;;;;;;;;;;;;;;;16.84;100.00;99499.41;5050641;28;19925;-50
2022/06/12 00:20:26;;;;;;;;;;;;;;;16.58;100.00;99495.84;5050762;28;20318;-49
2022/06/12 00:22:53;;;;;;;;;;;;;;;16.68;100.00;99481.19;5050636;28;19924;-49
2022/06/12 00:25:20;;;;;;;;;;;;;;;16.83;100.00;99470.13;5050627;28;20391;-50
2022/06/12 00:27:46;;;;;;;;;;;;;;;16.67;100.00;99468.53;5050676;28;19979;-50
2022/06/12 00:30:13;;;;;;;;;;;;;;;16.77;100.00;99472.50;5050408;28;20388;-50
2022/06/12 00:32:40;;;;;;;;;;;;;;;16.65;100.00;99470.13;5050811;28;20371;-50
2022/06/12 00:35:07;;;;;;;;;;;;;;;16.75;100.00;99465.78;5050662;28;19970;-50
2022/06/12 00:37:35;;;;;;;;;;;;;;;16.70;100.00;99470.53;5050339;28;19925;-51
2022/06/12 00:40:01;;;;;;;;;;;;;;;16.69;100.00;99473.66;5050603;28;19995;-51
2022/06/12 00:42:31;;;;;;;;;;;;;;;16.66;100.00;99475.28;5050321;28;20370;-50
2022/06/12 00:44:58;;;;;;;;;;;;;;;16.67;100.00;99467.75;5050529;28;19925;-52
2022/06/12 00:47:25;;;;;;;;;;;;;;;16.65;100.00;99478.44;5050271;28;19925;-52
2022/06/12 00:49:52;;;;;;;;;;;;;;;16.60;100.00;99473.31;5050486;28;19932;-51
2022/06/12 00:52:21;;;;;;;;;;;;;;;16.55;100.00;99479.25;5050159;28;19992;-49
2022/06/12 00:54:51;;;;;;;;;;;;;;;16.52;100.00;99460.66;5050067;28;20388;-49
2022/06/12 00:57:18;;;;;;;;;;;;;;;16.58;100.00;99465.38;5050150;28;19994;-50
2022/06/12 00:59:46;;;;;;;;;;;;;;;16.55;100.00;99465.41;5050030;28;19924;-49
2022/06/12 01:02:14;;;;;;;;;;;;;;;16.59;100.00;99469.72;5050105;28;19967;-51
2022/06/12 01:07:29;;;;;;;;;;;;;;;16.54;100.00;99478.44;5016500;28;19924;-50
2022/06/12 01:09:59;;;;;;;;;;;;;;;16.51;100.00;99481.22;5049832;28;19974;-50
2022/06/12 01:12:27;;;;;;;;;;;;;;;16.36;100.00;99472.94;5050208;28;19924;-52
2022/06/12 01:14:55;;;;;;;;;;;;;;;16.43;100.00;99450.81;5050089;28;20007;-52
2022/06/12 01:17:22;;;;;;;;;;;;;;;16.41;100.00;99452.38;5049928;28;19975;-49
2022/06/12 01:19:51;;;;;;;;;;;;;;;16.30;100.00;99443.31;5049826;28;19929;-51
2022/06/12 01:22:35;;;;;;;;;;;;;;;16.26;100.00;99423.94;5049852;28;19970;-49
2022/06/12 01:25:22;;;;;;;;;;;;;;;16.29;100.00;99416.81;5049972;28;19940;-50
2022/06/12 01:28:09;;;;;;;;;;;;;;;16.23;100.00;99406.16;5049703;28;20454;-53
2022/06/12 01:30:40;;;;;;;;;;;;;;;16.15;100.00;99404.56;5049995;28;19960;-50
2022/06/12 01:33:10;;;;;;;;;;;;;;;16.30;100.00;99410.09;5049681;28;19931;-51
2022/06/12 01:35:38;;;;;;;;;;;;;;;16.18;100.00;99408.53;5049925;28;19931;-51
2022/06/12 01:38:10;;;;;;;;;;;;;;;16.10;100.00;99396.69;5049938;28;20456;-52
2022/06/12 01:40:39;;;;;;;;;;;;;;;16.13;100.00;99386.81;5049515;28;20395;-52
2022/06/12 01:43:08;;;;;;;;;;;;;;;16.10;100.00;99377.34;5049697;28;19924;-49
2022/06/12 01:45:37;;;;;;;;;;;;;;;16.17;100.00;99380.09;5049675;28;19925;-49
2022/06/12 01:48:10;;;;;;;;;;;;;;;16.08;100.00;99381.69;5049821;28;19931;-50
2022/06/12 01:50:40;;;;;;;;;;;;;;;16.14;100.00;99380.88;5049533;28;19925;-51
2022/06/12 01:53:09;;;;;;;;;;;;;;;16.00;100.00;99386.44;5049629;28;20357;-51
2022/06/12 01:55:40;;;;;;;;;;;;;;;16.00;100.00;99386.44;5049601;28;19925;-52
2022/06/12 01:58:10;;;;;;;;;;;;;;;16.09;100.00;99369.41;5049812;28;19931;-52
2022/06/12 02:00:38;;;;;;;;;;;;;;;16.07;100.00;99366.28;5049576;28;19924;-52
2022/06/12 02:03:08;;;;;;;;;;;;;;;15.99;100.00;99355.22;5049189;28;19975;-52
2022/06/12 02:05:40;;;;;;;;;;;;;;;15.96;100.00;99352.44;5049595;28;19943;-49
2022/06/12 02:08:10;;;;;;;;;;;;;;;16.05;100.00;99360.34;5049356;28;19924;-52
2022/06/12 02:10:38;;;;;;;;;;;;;;;16.12;100.00;99355.59;5050065;28;20376;-49
2022/06/12 02:13:13;;;;;;;;;;;;;;;15.86;100.00;99354.06;5052868;28;19924;-53
2022/06/12 02:15:46;;;;;;;;;;;;;;;16.00;100.00;99337.44;5052642;28;19925;-49
2022/06/12 02:18:16;;;;;;;;;;;;;;;16.17;100.00;99348.88;5052556;28;19924;-50
2022/06/12 02:20:44;;;;;;;;;;;;;;;16.36;100.00;99353.16;5052483;28;19928;-51
2022/06/12 02:23:14;;;;;;;;;;;;;;;16.77;100.00;99374.81;5052592;28;19924;-49
2022/06/12 02:25:42;;;;;;;;;;;;;;;17.09;100.00;99424.53;5052879;28;19932;-50
2022/06/12 02:28:09;;;;;;;;;;;;;;;17.34;100.00;99482.59;5052821;28;19928;-51
2022/06/12 02:30:38;;;;;;;;;;;;;;;17.79;100.00;99557.66;5052532;28;19924;-51
2022/06/12 02:33:07;;;;;;;;;;;;;;;18.10;100.00;99619.72;5052596;28;19947;-52
2022/06/12 02:35:39;;;;;;;;;;;;;;;18.35;100.00;99684.19;5052215;28;20299;-50
2022/06/12 02:38:07;;;;;;;;;;;;;;;18.42;100.00;99715.88;5052584;28;19924;-50
2022/06/12 02:40:35;;;;;;;;;;;;;;;18.52;100.00;99746.34;5052418;28;19936;-50
2022/06/12 02:43:05;;;;;;;;;;;;;;;19.07;100.00;99763.53;5052209;28;19925;-53
2022/06/12 02:45:34;;;;;;;;;;;;;;;19.36;100.00;99766.88;5052176;28;19970;-51
2022/06/12 02:48:00;;;;;;;;;;;;;;;19.31;100.00;99759.75;5052089;28;19974;-52
2022/06/12 02:50:31;;;;;;;;;;;;;;;19.41;100.00;99747.75;5052435;28;20019;-51
2022/06/12 02:53:02;;;;;;;;;;;;;;;19.55;100.00;99751.63;5052277;28;19924;-53
2022/06/12 02:55:34;;;;;;;;;;;;;;;19.36;100.00;99734.31;5051989;28;20410;-51
2022/06/12 02:58:10;;;;;;;;;;;;;;;19.69;100.00;99727.28;5051845;28;20392;-50
2022/06/12 03:00:43;;;;;;;;;;;;;;;19.84;100.00;99721.56;5052143;28;20388;-50
2022/06/12 03:03:17;;;;;;;;;;;;;;;20.00;100.00;99701.50;5051817;28;19978;-52
2022/06/12 03:05:47;;;;;;;;;;;;;;;20.42;100.00;99661.16;5051893;28;20311;-53
2022/06/12 03:08:15;;;;;;;;;;;;;;;19.94;100.00;99618.47;5051835;28;19924;-54
2022/06/12 03:10:44;;;;;;;;;;;;;;;20.36;100.00;99571.78;5051678;28;20455;-53
2022/06/12 03:13:11;;;;;;;;;;;;;;;20.22;100.00;99553.25;5051970;28;19931;-53
2022/06/12 03:15:38;;;;;;;;;;;;;;;20.03;100.00;99562.31;5051427;28;19925;-53
2022/06/12 03:18:07;;;;;;;;;;;;;;;20.66;100.00;99559.78;5051879;28;19931;-53
2022/06/12 03:20:37;;;;;;;;;;;;;;;20.97;100.00;99408.34;5051515;28;19925;-53
2022/06/12 03:23:17;;;;;;;;;;;;;;;21.34;100.00;99351.38;5050980;28;19924;-53
2022/06/12 03:25:45;;;;;;;;;;;;;;;21.26;100.00;99311.72;5051443;28;19924;-54
2022/06/12 03:28:15;;;;;;;;;;;;;;;21.75;100.00;99204.94;5051776;28;19925;-54
2022/06/12 03:30:43;;;;;;;;;;;;;;;21.80;100.00;99235.13;5051643;28;19928;-55
2022/06/12 03:33:13;;;;;;;;;;;;;;;22.17;100.00;99068.22;5051425;28;19925;-54
2022/06/12 03:35:47;;;;;;;;;;;;;;;22.37;100.00;99000.97;5051643;28;20384;-54
2022/06/12 03:38:18;;;;;;;;;;;;;;;22.27;100.00;98966.56;5051455;28;19925;-55
2022/06/12 03:40:48;;;;;;;;;;;;;;;22.44;100.00;98967.19;5051444;28;19925;-55
2022/06/12 03:43:18;;;;;;;;;;;;;;;22.84;100.00;98916.34;5051620;28;19924;-55
2022/06/12 03:45:46;;;;;;;;;;;;;;;23.08;100.00;98758.09;5051271;28;19978;-55
2022/06/12 03:48:18;;;;;;;;;;;;;;;23.20;100.00;98694.94;5051095;28;19925;-55
2022/06/12 03:50:46;;;;;;;;;;;;;;;23.46;100.00;98662.66;5051597;28;19932;-55
2022/06/12 03:53:17;;;;;;;;;;;;;;;23.30;100.00;98674.13;5051352;28;20445;-54
2022/06/12 03:58:33;;;;;;;;;;;;;;;23.45;100.00;98627.50;5051409;28;19932;-54
2022/06/12 04:01:01;;;;;;;;;;;;;;;23.73;100.00;98588.38;5051023;28;19924;-56
2022/06/12 04:03:29;;;;;;;;;;;;;;;23.67;100.00;98576.22;5051089;28;19930;-55
2022/06/12 04:05:57;;;;;;;;;;;;;;;23.59;100.00;98503.03;5051036;28;20375;-55
2022/06/12 04:08:25;;;;;;;;;;;;;;;23.89;100.00;98550.84;5050901;28;19931;-57
2022/06/12 04:10:52;;;;;;;;;;;;;;;24.05;100.00;98482.53;5050793;28;19931;-54
2022/06/12 04:13:20;;;;;;;;;;;;;;;23.92;100.00;98530.31;5050713;28;20395;-56
2022/06/12 04:15:50;;;;;;;;;;;;;;;24.33;100.00;98441.94;5050972;28;19928;-56
2022/06/12 04:18:16;;;;;;;;;;;;;;;24.38;100.00;98429.31;5050713;28;19925;-56
2022/06/12 04:20:48;;;;;;;;;;;;;;;24.21;100.00;98459.75;5050971;28;19970;-56
2022/06/12 04:23:20;;;;;;;;;;;;;;;24.81;100.00;98369.06;5050640;28;19931;-55
2022/06/12 04:25:49;;;;;;;;;;;;;;;24.76;100.00;98336.13;5050837;28;19932;-57
2022/06/12 04:28:24;;;;;;;;;;;;;;;24.87;100.00;98339.09;5050716;28;19931;-56
2022/06/12 04:30:50;;;;;;;;;;;;;;;25.08;100.00;98314.75;5050655;28;19924;-56
2022/06/12 04:33:20;;;;;;;;;;;;;;;24.90;100.00;98342.97;5050242;28;19932;-56
2022/06/12 04:35:48;;;;;;;;;;;;;;;25.54;100.00;98279.78;5050424;28;19977;-57
2022/06/12 04:38:14;;;;;;;;;;;;;;;25.94;100.00;98234.16;5050458;28;19924;-57
2022/06/12 04:40:40;;;;;;;;;;;;;;;25.75;100.00;98218.81;5050578;28;19931;-56
2022/06/12 04:43:06;;;;;;;;;;;;;;;26.21;100.00;98216.06;5050658;28;19947;-57
2022/06/12 04:45:33;;;;;;;;;;;;;;;26.19;100.00;98189.72;5050473;28;19925;-57
2022/06/12 04:47:59;;;;;;;;;;;;;;;26.53;100.00;98182.44;5050603;28;19925;-57
2022/06/12 04:50:25;;;;;;;;;;;;;;;26.71;100.00;98189.75;5050576;28;19989;-57
2022/06/12 04:52:51;;;;;;;;;;;;;;;26.83;100.00;98180.13;5050063;28;20019;-57
2022/06/12 04:55:17;;;;;;;;;;;;;;;27.09;100.00;98182.09;5050186;28;19924;-57
2022/06/12 04:57:43;;;;;;;;;;;;;;;26.55;100.00;98185.50;5050330;28;19924;-57
2022/06/12 05:00:09;;;;;;;;;;;;;;;27.11;100.00;98182.34;5050143;28;19932;-57
2022/06/12 05:02:36;;;;;;;;;;;;;;;27.73;100.00;98177.09;5049978;28;20391;-57
2022/06/12 05:05:02;;;;;;;;;;;;;;;27.43;100.00;98183.88;5049945;28;19924;-57
2022/06/12 05:07:28;;;;;;;;;;;;;;;27.22;100.00;98188.06;5049896;28;19929;-57
2022/06/12 05:09:54;;;;;;;;;;;;;;;27.74;100.00;98192.72;5050005;28;19924;-57
2022/06/12 05:12:20;;;;;;;;;;;;;;;27.95;100.00;98185.63;5049949;28;19924;-57
2022/06/12 05:14:46;;;;;;;;;;;;;;;27.97;100.00;98213.31;5050311;28;20015;-58
2022/06/12 05:17:14;;;;;;;;;;;;;;;27.88;100.00;98209.41;5049830;28;20437;-57
2022/06/12 05:19:41;;;;;;;;;;;;;;;27.51;100.00;98184.16;5050077;28;19925;-57
2022/06/12 05:22:09;;;;;;;;;;;;;;;27.62;100.00;98187.03;5050052;28;19974;-57
2022/06/12 05:24:36;;;;;;;;;;;;;;;28.13;100.00;98204.13;5050112;28;19925;-58
2022/06/12 05:27:03;;;;;;;;;;;;;;;28.39;100.00;98218.06;5049772;28;19970;-57
2022/06/12 05:29:31;;;;;;;;;;;;;;;28.27;100.00;98231.31;5049772;28;19925;-58
2022/06/12 05:31:57;;;;;;;;;;;;;;;28.35;100.00;98232.34;5049732;28;20079;-58
2022/06/12 05:34:25;;;;;;;;;;;;;;;28.80;100.00;98254.25;5049640;28;19931;-58
2022/06/12 05:36:52;;;;;;;;;;;;;;;28.57;100.00;98242.94;5049604;28;19924;-58
2022/06/12 05:39:18;;;;;;;;;;;;;;;28.89;100.00;98245.53;5049746;28;19929;-58
2022/06/12 05:41:45;;;;;;;;;;;;;;;29.03;100.00;98236.06;5049838;28;20379;-58
2022/06/12 05:44:12;;;;;;;;;;;;;;;29.49;100.00;98242.41;5049638;28;19931;-58
2022/06/12 05:46:38;;;;;;;;;;;;;;;29.63;100.00;98285.81;5051864;28;19935;-58
2022/06/12 05:49:04;;;;;;;;;;;;;;;29.42;100.00;98333.28;5053021;28;19924;-57
2022/06/12 05:51:30;;;;;;;;;;;;;;;28.78;100.00;98313.22;5053257;28;19978;-58
2022/06/12 05:53:57;;;;;;;;;;;;;;;29.11;100.00;98309.69;5053143;28;20391;-57
2022/06/12 05:56:24;;;;;;;;;;;;;;;29.54;100.00;98307.34;5053086;28;20391;-58
2022/06/12 05:58:50;;;;;;;;;;;;;;;29.71;100.00;98321.47;5053138;28;19924;-57
2022/06/12 06:01:17;;;;;;;;;;;;;;;29.89;100.00;98364.56;5053055;28;19931;-58
2022/06/12 06:03:43;;;;;;;;;;;;;;;29.84;100.00;98345.59;5053048;28;19924;-57
2022/06/12 06:06:10;;;;;;;;;;;;;;;30.29;100.00;98359.59;5053082;28;19924;-58
2022/06/12 06:08:36;;;;;;;;;;;;;;;30.35;100.00;98358.31;5053157;28;19930;-58
2022/06/12 06:11:03;;;;;;;;;;;;;;;30.13;100.00;98339.34;5052562;28;20307;-58
2022/06/12 06:13:29;;;;;;;;;;;;;;;30.56;100.00;98321.22;5053020;28;19925;-58
2022/06/12 06:15:55;;;;;;;;;;;;;;;30.81;100.00;98370.19;5052529;28;19932;-58
2022/06/12 06:18:21;;;;;;;;;;;;;;;30.13;100.00;98358.38;5052862;28;19924;-58
2022/06/12 06:20:48;;;;;;;;;;;;;;;30.37;100.00;98327.44;5052577;28;19924;-58
2022/06/12 06:23:14;;;;;;;;;;;;;;;30.98;100.00;98356.72;5052762;28;19925;-58
2022/06/12 06:25:41;;;;;;;;;;;;;;;30.68;100.00;98394.16;5052859;28;19925;-58
2022/06/12 06:28:09;;;;;;;;;;;;;;;30.56;100.00;98369.28;5052560;28;19924;-58
2022/06/12 06:30:35;;;;;;;;;;;;;;;30.57;100.00;98339.72;5052781;28;19928;-58
2022/06/12 06:33:01;;;;;;;;;;;;;;;31.08;100.00;98416.59;5052208;28;19924;-58
2022/06/12 06:35:27;;;;;;;;;;;;;;;30.47;100.00;98353.38;5052263;28;20287;-58
2022/06/12 06:37:53;;;;;;;;;;;;;;;29.53;100.00;98314.28;5052311;28;19924;-58
2022/06/12 06:40:21;;;;;;;;;;;;;;;29.61;100.00;98291.97;5052342;28;19925;-59
2022/06/12 06:42:47;;;;;;;;;;;;;;;29.31;100.00;98317.88;5052331;28;19924;-58
2022/06/12 06:47:59;;;;;;;;;;;;;;;28.65;100.00;98305.22;5052306;28;20422;-58
2022/06/12 06:50:25;;;;;;;;;;;;;;;28.08;100.00;98266.88;5052127;28;19925;-58
2022/06/12 06:52:51;;;;;;;;;;;;;;;29.21;100.00;98342.00;5052019;28;19925;-57
2022/06/12 06:55:17;;;;;;;;;;;;;;;29.83;100.00;98395.69;5051882;28;19931;-58
2022/06/12 06:57:45;;;;;;;;;;;;;;;29.51;100.00;98443.16;5051790;28;19970;-57
2022/06/12 07:00:14;;;;;;;;;;;;;;;30.08;100.00;98453.19;5051927;28;19930;-58
2022/06/12 07:02:40;;;;;;;;;;;;;;;30.69;100.00;98455.13;5052123;28;19970;-57
2022/06/12 07:05:07;;;;;;;;;;;;;;;30.36;100.00;98498.41;5051967;28;19924;-57
2022/06/12 07:07:34;;;;;;;;;;;;;;;30.98;100.00;98503.13;5052055;28;19933;-57
2022/06/12 07:10:01;;;;;;;;;;;;;;;31.38;100.00;98527.91;5051719;28;20014;-58
2022/06/12 07:12:27;;;;;;;;;;;;;;;31.65;100.00;98531.09;5052009;28;19932;-58
2022/06/12 07:14:53;;;;;;;;;;;;;;;31.19;100.00;98541.13;5051716;28;19925;-58
2022/06/12 07:17:18;;;;;;;;;;;;;;;31.20;100.00;98533.41;5051837;28;19925;-58
2022/06/12 07:19:45;;;;;;;;;;;;;;;31.90;100.00;98570.91;5051769;28;20291;-58
2022/06/12 07:22:11;;;;;;;;;;;;;;;31.57;100.00;98590.38;5051685;28;19924;-58
2022/06/12 07:24:37;;;;;;;;;;;;;;;30.87;100.00;98580.34;5051473;28;19924;-58
2022/06/12 07:27:04;;;;;;;;;;;;;;;30.75;100.00;98567.47;5051495;28;20011;-58
2022/06/12 07:29:30;;;;;;;;;;;;;;;30.71;100.00;98576.25;5051574;28;19928;-58
2022/06/12 07:31:56;;;;;;;;;;;;;;;31.13;100.00;98594.94;5051799;28;20110;-58
2022/06/12 07:34:22;;;;;;;;;;;;;;;31.57;100.00;98572.63;5051832;28;19978;-58
2022/06/12 07:36:50;;;;;;;;;;;;;;;31.22;100.00;98573.28;5051414;28;19935;-57
2022/06/12 07:39:18;;;;;;;;;;;;;;;30.78;100.00;98533.28;5051866;28;19928;-57
2022/06/12 07:41:45;;;;;;;;;;;;;;;30.71;100.00;98514.00;5051430;28;19931;-57
2022/06/12 07:44:13;;;;;;;;;;;;;;;30.02;100.00;98504.06;5051529;28;19975;-57
2022/06/12 07:46:39;;;;;;;;;;;;;;;30.13;100.00;98474.25;5051312;28;20030;-58
2022/06/12 07:49:05;;;;;;;;;;;;;;;30.66;100.00;98507.06;5051544;28;19924;-58
2022/06/12 07:51:31;;;;;;;;;;;;;;;30.14;100.00;98496.34;5051373;28;19924;-58
2022/06/12 07:53:57;;;;;;;;;;;;;;;29.28;100.00;98431.06;5051079;28;20311;-58
2022/06/12 07:56:24;;;;;;;;;;;;;;;30.40;100.00;98479.13;5051005;28;19924;-57
2022/06/12 07:58:50;;;;;;;;;;;;;;;30.82;100.00;98499.81;5051447;28;19924;-58
2022/06/12 08:01:18;;;;;;;;;;;;;;;30.78;100.00;98501.41;5051097;28;19925;-58
2022/06/12 08:03:44;;;;;;;;;;;;;;;30.57;100.00;98469.81;5051233;28;19924;-58
2022/06/12 08:06:10;;;;;;;;;;;;;;;29.52;100.00;98442.66;5050990;28;19972;-58
2022/06/12 08:08:36;;;;;;;;;;;;;;;30.03;100.00;98425.72;5050171;28;19924;-58
2022/06/12 08:11:03;;;;;;;;;;;;;;;29.58;100.00;98453.94;5051037;28;19931;-58
2022/06/12 08:13:30;;;;;;;;;;;;;;;30.65;100.00;98454.59;5050947;28;19924;-58
2022/06/12 08:15:57;;;;;;;;;;;;;;;30.48;100.00;98485.00;5050776;28;19925;-58
2022/06/12 08:18:23;;;;;;;;;;;;;;;31.11;100.00;98498.41;5050796;28;19991;-58
2022/06/12 08:20:51;;;;;;;;;;;;;;;31.09;100.00;98503.06;5050628;28;20456;-58
2022/06/12 08:23:29;;;;;;;;;;;;;;;32.25;100.00;98541.75;5050723;28;19928;-58
2022/06/12 08:25:56;;;;;;;;;;;;;;;31.72;100.00;98552.44;5050648;28;20454;-58
2022/06/12 08:28:23;;;;;;;;;;;;;;;30.04;100.00;98508.44;5050896;28;20299;-58
2022/06/12 08:30:49;;;;;;;;;;;;;;;31.07;100.00;98509.25;5050551;28;19924;-58
2022/06/12 08:33:15;;;;;;;;;;;;;;;31.07;100.00;98514.16;5050657;28;19931;-58
2022/06/12 08:35:41;;;;;;;;;;;;;;;32.00;100.00;98526.75;5050770;28;20031;-58
2022/06/12 08:38:07;;;;;;;;;;;;;;;31.66;100.00;98518.47;5050679;28;19968;-57
2022/06/12 08:40:38;;;;;;;;;;;;;;;32.32;100.00;98578.81;5050432;28;19931;-58
2022/06/12 08:43:09;;;;;;;;;;;;;;;32.43;100.00;98592.16;5050516;28;19925;-57
2022/06/12 08:45:39;;;;;;;;;;;;;;;31.35;100.00;98568.59;5050316;28;20391;-58
2022/06/12 08:48:09;;;;;;;;;;;;;;;30.47;100.00;98545.69;5050206;28;19935;-58
2022/06/12 08:50:37;;;;;;;;;;;;;;;30.80;100.00;98561.84;5050460;28;19929;-58
2022/06/12 08:53:06;;;;;;;;;;;;;;;31.30;100.00;98568.63;5050444;28;20392;-57
2022/06/12 08:55:34;;;;;;;;;;;;;;;31.23;100.00;98569.94;5050465;28;20436;-58
2022/06/12 08:58:03;;;;;;;;;;;;;;;30.88;100.00;98523.22;5050503;28;20384;-58
2022/06/12 09:00:32;;;;;;;;;;;;;;;31.74;100.00;98538.50;5050531;28;19924;-57
2022/06/12 09:02:59;;;;;;;;;;;;;;;29.80;100.00;98554.16;5050047;28;19944;-58
2022/06/12 09:05:29;;;;;;;;;;;;;;;29.25;100.00;98508.28;5050030;28;19925;-57
2022/06/12 09:08:00;;;;;;;;;;;;;;;29.88;100.00;98507.16;5050164;28;19924;-57
2022/06/12 09:10:29;;;;;;;;;;;;;;;30.93;100.00;98522.44;5050053;28;19925;-58
2022/06/12 09:13:01;;;;;;;;;;;;;;;31.92;100.00;98546.38;5049838;28;20014;-58
2022/06/12 09:15:34;;;;;;;;;;;;;;;32.15;100.00;98566.06;5049922;28;19924;-58
2022/06/12 09:18:06;;;;;;;;;;;;;;;32.02;100.00;98566.66;5050105;28;19947;-58
2022/06/12 09:20:37;;;;;;;;;;;;;;;30.57;100.00;98541.28;5050340;28;19978;-58
2022/06/12 09:23:07;;;;;;;;;;;;;;;29.30;100.00;98484.97;5053272;28;19928;-57
2022/06/12 09:25:36;;;;;;;;;;;;;;;30.38;100.00;98490.16;5053455;28;19978;-58
2022/06/12 09:28:06;;;;;;;;;;;;;;;30.99;100.00;98459.38;5053743;28;19924;-58
2022/06/12 09:30:36;;;;;;;;;;;;;;;31.73;100.00;98486.75;5053260;28;19924;-58
2022/06/12 09:33:06;;;;;;;;;;;;;;;31.90;100.00;98500.03;5053484;28;19925;-58
2022/06/12 09:35:37;;;;;;;;;;;;;;;32.46;100.00;98505.22;5053200;28;19924;-58
2022/06/12 09:38:21;;;;;;;;;;;;;;;32.81;100.00;98509.97;5053269;28;20411;-58
2022/06/12 09:40:54;;;;;;;;;;;;;;;32.64;100.00;98521.53;5053283;28;19925;-58
2022/06/12 09:43:28;;;;;;;;;;;;;;;32.99;100.00;98551.06;5053154;28;19991;-58
2022/06/12 09:45:59;;;;;;;;;;;;;;;33.25;100.00;98568.31;5053091;28;19925;-58
2022/06/12 09:48:33;;;;;;;;;;;;;;;33.46;100.00;98542.25;5053388;28;19924;-58
2022/06/12 09:51:08;;;;;;;;;;;;;;;31.88;100.00;98495.66;5053271;28;19924;-58
2022/06/12 09:53:53;;;;;;;;;;;;;;;30.28;100.00;98435.19;5053070;28;19932;-58
2022/06/12 09:56:20;;;;;;;;;;;;;;;28.15;100.00;98331.19;5052969;28;20399;-57
2022/06/12 09:58:48;;;;;;;;;;;;;;;27.32;100.00;98236.50;5053145;28;19925;-57
2022/06/12 10:01:17;;;;;;;;;;;;;;;27.10;100.00;98237.84;5053291;28;19970;-57
2022/06/12 10:03:45;;;;;;;;;;;;;;;27.30;100.00;98222.16;5053062;28;19925;-57
2022/06/12 10:06:21;;;;;;;;;;;;;;;27.41;100.00;98220.19;5052860;28;19946;-57
2022/06/12 10:08:50;;;;;;;;;;;;;;;26.79;100.00;98280.81;5052862;28;19925;-57
2022/06/12 10:11:20;;;;;;;;;;;;;;;26.59;100.00;98208.56;5052771;28;19940;-57
2022/06/12 10:13:49;;;;;;;;;;;;;;;26.50;100.00;98164.53;5052564;28;19924;-57
2022/06/12 10:16:18;;;;;;;;;;;;;;;26.99;100.00;98179.47;5052744;28;19925;-57
2022/06/12 10:18:47;;;;;;;;;;;;;;;27.62;100.00;98172.97;5052768;28;19931;-57
2022/06/12 10:21:15;;;;;;;;;;;;;;;27.99;100.00;98253.78;5052803;28;20019;-57
2022/06/12 10:23:40;;;;;;;;;;;;;;;27.90;100.00;98353.34;5052525;28;19924;-57
2022/06/12 10:26:13;;;;;;;;;;;;;;;27.51;100.00;98372.75;5052777;28;19976;-57
2022/06/12 10:28:40;;;;;;;;;;;;;;;27.91;100.00;98444.25;5052804;28;19925;-57
2022/06/12 10:31:15;;;;;;;;;;;;;;;28.38;100.00;98442.75;5052400;28;20012;-57
2022/06/12 10:33:47;;;;;;;;;;;;;;;28.12;100.00;98423.16;5052375;28;20415;-57
2022/06/12 10:36:28;;;;;;;;;;;;;;;28.26;100.00;98455.25;5052172;28;19924;-57
2022/06/12 10:39:04;;;;;;;;;;;;;;;28.16;100.00;98380.66;5049373;28;20291;-57
2022/06/12 10:41:31;;;;;;;;;;;;;;;27.73;100.00;98315.06;5052401;28;19928;-56
2022/06/12 10:43:57;;;;;;;;;;;;;;;27.77;100.00;98259.31;5052203;28;19936;-57
2022/06/12 10:46:25;;;;;;;;;;;;;;;27.81;100.00;98271.88;5052218;28;19928;-56
2022/06/12 10:49:02;;;;;;;;;;;;;;;26.91;100.00;98242.31;5052541;28;19955;-57
2022/06/12 10:51:30;;;;;;;;;;;;;;;27.09;100.00;98211.00;5052041;28;19929;-57
2022/06/12 10:53:57;;;;;;;;;;;;;;;26.87;100.00;98200.34;5052443;28;20406;-57
2022/06/12 10:56:25;;;;;;;;;;;;;;;26.51;100.00;98168.88;5052010;28;19932;-57
2022/06/12 10:59:20;;;;;;;;;;;;;;;25.95;100.00;98128.97;5052098;28;19924;-57
2022/06/12 11:01:51;;;;;;;;;;;;;;;25.93;100.00;98130.75;4971045;28;19926;-57
2022/06/12 11:04:29;;;;;;;;;;;;;;;25.75;100.00;98174.66;5035381;28;19924;-54
2022/06/12 11:06:59;;;;;;;;;;;;;;;25.54;100.00;98142.28;5052151;28;19947;-55
2022/06/12 11:09:30;;;;;;;;;;;;;;;25.96;100.00;98180.31;5051827;28;19924;-56
2022/06/12 11:12:10;;;;;;;;;;;;;;;25.66;100.00;98244.22;5051765;28;19931;-56
2022/06/12 11:14:48;;;;;;;;;;;;;;;25.87;100.00;98262.66;5051844;28;19925;-56
2022/06/12 11:17:24;;;;;;;;;;;;;;;25.65;100.00;98221.00;5051716;28;19925;-55
2022/06/12 11:19:59;;;;;;;;;;;;;;;25.95;100.00;98251.75;5052019;28;20333;-57
2022/06/12 11:22:32;;;;;;;;;;;;;;;26.29;100.00;98217.19;5051672;28;20392;-56
2022/06/12 11:25:01;;;;;;;;;;;;;;;26.51;100.00;98280.53;5051808;28;20300;-57
2022/06/12 11:27:35;;;;;;;;;;;;;;;27.09;100.00;98288.97;5051883;28;19924;-57
2022/06/12 11:30:19;;;;;;;;;;;;;;;27.20;100.00;98331.31;5051676;28;20027;-57
2022/06/12 11:32:57;;;;;;;;;;;;;;;26.40;100.00;98316.91;5038647;28;19931;-57
2022/06/12 11:35:37;;;;;;;;;;;;;;;26.38;100.00;98292.09;5051416;28;19951;-57
2022/06/12 11:38:16;;;;;;;;;;;;;;;26.27;100.00;98273.09;5051484;28;19924;-56
2022/06/12 11:40:46;;;;;;;;;;;;;;;25.66;100.00;98202.91;5051461;28;19924;-55
2022/06/12 11:43:18;;;;;;;;;;;;;;;25.85;100.00;98180.16;5050773;28;20011;-55
2022/06/12 11:45:49;;;;;;;;;;;;;;;25.76;100.00;98147.41;5051420;28;19925;-55
2022/06/12 11:48:24;;;;;;;;;;;;;;;25.67;100.00;98167.19;5051312;28;19939;-56
2022/06/12 11:50:56;;;;;;;;;;;;;;;25.55;100.00;98180.28;5051413;28;19931;-55
2022/06/12 11:53:31;;;;;;;;;;;;;;;26.02;100.00;98249.31;5051466;28;19924;-56
2022/06/12 11:56:00;;;;;;;;;;;;;;;25.66;100.00;98216.94;5051158;28;19964;-55
2022/06/12 11:58:40;;;;;;;;;;;;;;;25.83;100.00;98267.72;5051146;28;19925;-55
2022/06/12 12:01:10;;;;;;;;;;;;;;;25.76;100.00;98265.28;5051388;28;19960;-56
2022/06/12 12:03:54;;;;;;;;;;;;;;;25.48;100.00;98290.91;5050974;28;19963;-55
2022/06/12 12:06:26;;;;;;;;;;;;;;;26.08;100.00;98387.00;5050781;28;19981;-55
2022/06/12 12:09:02;;;;;;;;;;;;;;;26.02;100.00;98414.22;5050842;28;19925;-57
2022/06/12 12:11:32;;;;;;;;;;;;;;;26.26;100.00;98389.56;5050854;28;19929;-56
2022/06/12 12:13:59;;;;;;;;;;;;;;;26.37;100.00;98346.78;5051166;28;19929;-57
2022/06/12 12:16:29;;;;;;;;;;;;;;;26.13;100.00;98293.63;5050712;28;19925;-56
2022/06/12 12:18:58;;;;;;;;;;;;;;;26.16;100.00;98311.53;5051328;28;19932;-55
2022/06/12 12:21:29;;;;;;;;;;;;;;;25.81;100.00;98285.03;5050744;28;19925;-55
2022/06/12 12:23:56;;;;;;;;;;;;;;;26.21;100.00;98297.53;5050931;28;19931;-55
2022/06/12 12:26:23;;;;;;;;;;;;;;;26.22;100.00;98289.88;5050714;28;19947;-55
2022/06/12 12:28:51;;;;;;;;;;;;;;;26.30;100.00;98299.44;5050529;28;19924;-57
2022/06/12 12:31:18;;;;;;;;;;;;;;;26.14;100.00;98398.31;5050458;28;19932;-55
2022/06/12 12:33:45;;;;;;;;;;;;;;;26.00;100.00;98381.03;5050555;28;19925;-57
2022/06/12 12:41:44;;;;;;;;;;;;;;;25.81;100.00;98312.34;5050918;28;19947;-57
2022/06/12 12:44:10;;;;;;;;;;;;;;;25.83;100.00;98331.50;5050314;28;19994;-55
2022/06/12 12:46:42;;;;;;;;;;;;;;;25.90;100.00;98286.19;5050602;28;19948;-56
2022/06/12 12:49:08;;;;;;;;;;;;;;;26.03;100.00;98309.84;5050391;28;19934;-57
2022/06/12 12:51:35;;;;;;;;;;;;;;;25.70;100.00;98300.94;5050299;28;19968;-56
2022/06/12 12:54:09;;;;;;;;;;;;;;;25.31;100.00;98290.66;5050348;28;19924;-55
2022/06/12 12:56:38;;;;;;;;;;;;;;;25.63;100.00;98268.44;5050253;28;19924;-56
2022/06/12 12:59:06;;;;;;;;;;;;;;;25.49;100.00;98272.03;5050410;28;20015;-55